Nearby METAR Reports

 

KMTN - Baltimore/Martin, Maryland, USA
Distance from station: SSE 8mi, 13km
Updated: Mon, 01-Sep-2014 6:55pm EDT
Partly cloudy
Partly cloudy
 Wind from SSE
Wind: SSE 7 mph , 11 km/h
Temperature: 84°F , 29°C
Heat Index: 96°F , 36°C
Dew Point: 79°F , 26°C
Humidity: 84%
Barometer: 29.95 inHg , 1014.2 hPa
Clouds: Partly cloudy
Visibility: 10 miles , 16 km
Cloud details: Partly cloudy 6000 ft
2014/09/01 22:55 KMTN 012255Z 16006KT 10SM SCT060 29/26 A2995
KDMH - Baltimore/Dwntwn, Maryland, USA
Distance from station: SW 12mi, 19km
Updated: Mon, 01-Sep-2014 6:54pm EDT

 
Temperature: 88°F , 31°C
Heat Index: 93°F , 34°C
Dew Point: 70°F , 21°C
Humidity: 55%
Barometer: 29.94 inHg , 1013.9 hPa
2014/09/01 22:54 KDMH 012254Z AUTO 31/21 A2994 RMK AO1 SLP138 T03110206
 
KBWI - Balto/Wash Intl, Maryland, USA
Distance from station: SSW 20mi, 33km
Updated: Mon, 01-Sep-2014 6:54pm EDT
Few Clouds
Few Clouds
 Wind from SSW
Wind: SSW 3 mph , 6 km/h
Temperature: 84°F , 29°C
Heat Index: 89°F , 32°C
Dew Point: 72°F , 22°C
Humidity: 66%
Barometer: 29.95 inHg , 1014.2 hPa
Clouds: Few Clouds
Visibility: 10 miles , 16 km
Cloud details: Few Clouds 7000 ft
2014/09/01 22:54 KBWI 012254Z 21003KT 10SM FEW070 29/22 A2995 RMK AO2 SLP139 T02940222
KDMW - Carroll Cnty, Maryland, USA
Distance from station: WNW 30mi, 48km
Updated: Mon, 01-Sep-2014 7:05pm EDT
Partly cloudy
Partly cloudy
 Wind from SW
Wind: SW 5 mph , 7 km/h
Temperature: 84°F , 29°C
Heat Index: 90°F , 32°C
Dew Point: 73°F , 23°C
Humidity: 70%
Barometer: 29.99 inHg , 1015.6 hPa
Clouds: Partly cloudy
Visibility: 10 miles , 16 km
Cloud details: Partly cloudy 9000 ft
2014/09/01 23:05 KDMW 012305Z AUTO 23004KT 10SM SCT090 29/23 A2999 RMK AO2
 
KNAK - Annapolis/Naval, Maryland, USA
Distance from station: S 30mi, 48km
Updated: Mon, 01-Sep-2014 6:54pm EDT
Partly cloudy
Partly cloudy
 Wind from calm
Wind: Calm
Temperature: 86°F , 30°C
Heat Index: 93°F , 34°C
Dew Point: 73°F , 23°C
Humidity: 66%
Barometer: 29.94 inHg , 1013.9 hPa
Clouds: Partly cloudy
Visibility: 10 miles , 16 km
Cloud details: Few Clouds 7500 ft
Partly cloudy 9000 ft
2014/09/01 22:54 KNAK 012254Z AUTO 00000KT 10SM FEW075 SCT090 30/23 A2994 RMK AO2 RAE2155 SLP141 P0000 T03000233 $
KW29 - Stevensville, Maryland, USA
Distance from station: SSE 31mi, 50km
Updated: Mon, 01-Sep-2014 7:08pm EDT

 Wind from SSW
Wind: SSW 3 mph , 6 km/h
Temperature: 82°F , 28°C
Heat Index: 89°F , 32°C
Dew Point: 75°F , 24°C
Humidity: 79%
Barometer: 29.95 inHg , 1014.2 hPa
Visibility: 10 miles , 16 km
2014/09/01 23:08 KW29 012308Z AUTO 21003KT 10SM 28/24 A2995 RMK AO1
 
KCGS - College Park, Maryland, USA
Distance from station: SW 38mi, 61km
Updated: Mon, 01-Sep-2014 7:05pm EDT
Clear
Clear
 Wind from calm
Wind: Calm
Temperature: 86°F , 30°C
Heat Index: 93°F , 34°C
Dew Point: 73°F , 23°C
Humidity: 66%
Barometer: 29.95 inHg , 1014.2 hPa
Clouds: Clear
Visibility: 10 miles , 16 km
2014/09/01 23:05 KCGS 012305Z AUTO 00000KT 10SM CLR 30/23 A2995 RMK AO1
KGAI - Gaithersburg, Maryland, USA
Distance from station: WSW 40mi, 65km
Updated: Mon, 01-Sep-2014 7:15pm EDT
Clear
Clear
 Wind from S
Wind: S 3 mph , 6 km/h
Temperature: 82°F , 28°C
Heat Index: 86°F , 30°C
Dew Point: 72°F , 22°C
Humidity: 70%
Barometer: 30.01 inHg , 1016.3 hPa
Clouds: Clear
Visibility: 10 miles , 16 km
2014/09/01 23:15 KGAI 012315Z AUTO 17003KT 10SM CLR 28/22 A3001 RMK AO1
 
KTHV - York, Pennsylvania, USA
Distance from station: NNW 40mi, 65km
Updated: Mon, 01-Sep-2014 6:53pm EDT
Few Clouds
Few Clouds
 Wind from calm
Wind: Calm
Temperature: 82°F , 28°C
Heat Index: 87°F , 31°C
Dew Point: 73°F , 23°C
Humidity: 74%
Barometer: 29.95 inHg , 1014.2 hPa
Clouds: Few Clouds
Visibility: 10 miles , 16 km
Cloud details: Few Clouds 3800 ft
Few Clouds 4900 ft
2014/09/01 22:53 KTHV 012253Z AUTO 00000KT 10SM FEW038 FEW049 28/23 A2995 RMK AO2 SLP141 T02830233
KFDK - Frederick, Maryland, USA
Distance from station: W 47mi, 75km
Updated: Mon, 01-Sep-2014 6:45pm EDT
Clear
Clear
 Wind from SSW
Wind: SSW 6 mph , 9 km/h
Temperature: 86°F , 30°C
Heat Index: 93°F , 34°C
Dew Point: 73°F , 23°C
Humidity: 66%
Barometer: 29.98 inHg , 1015.2 hPa
Clouds: Clear
Visibility: 10 miles , 16 km
2014/09/01 22:45 KFDK 012245Z 20005KT 10SM SKC 30/23 A2998
 
KESN - Easton/Newnam, Maryland, USA
Distance from station: SSE 48mi, 78km
Updated: Mon, 01-Sep-2014 6:53pm EDT
Partly cloudy
Partly cloudy
 Wind from calm
Wind: Calm
Temperature: 88°F , 31°C
Heat Index: 96°F , 36°C
Dew Point: 73°F , 23°C
Humidity: 62%
Barometer: 29.98 inHg , 1015.2 hPa
Clouds: Partly cloudy
Visibility: 10 miles , 16 km
Cloud details: Partly cloudy 7000 ft
2014/09/01 22:53 KESN 012253Z 00000KT 10SM SCT070 31/23 A2998
KDCA - Washington/Natl, Washington D.c., USA
Distance from station: SW 49mi, 79km
Updated: Mon, 01-Sep-2014 6:52pm EDT
Mostly cloudy
Mostly cloudy
 Wind from calm
Wind: Calm
Temperature: 86°F , 30°C
Heat Index: 92°F , 33°C
Dew Point: 72°F , 22°C
Humidity: 62%
Barometer: 29.96 inHg , 1014.6 hPa
Clouds: Mostly cloudy
Visibility: 10 miles , 16 km
Cloud details: Few Clouds 5500 ft
Partly cloudy 7000 ft
Mostly cloudy 25000 ft
2014/09/01 22:52 KDCA 012252Z 00000KT 10SM FEW055 SCT070 BKN250 30/22 A2996 RMK AO2 SLP144 CB DSNT N-S MOV E T03000217
 
KLNS - Lancaster, Pennsylvania, USA
Distance from station: N 49mi, 79km
Updated: Mon, 01-Sep-2014 6:53pm EDT
Mostly cloudy
Mostly cloudy
 Wind from calm
Wind: Calm
Temperature: 84°F , 29°C
Heat Index: 89°F , 32°C
Dew Point: 72°F , 22°C
Humidity: 66%
Barometer: 29.94 inHg , 1013.9 hPa
Clouds: Mostly cloudy
Visibility: 10 miles , 16 km
Cloud details: Few Clouds 4100 ft
Mostly cloudy 6000 ft
2014/09/01 22:53 KLNS 012253Z 00000KT 10SM FEW041 BKN060 29/22 A2994 RMK AO2 SLP135 T02890217 $
KILG - Wilmington, Delaware, USA
Distance from station: ENE 50mi, 81km
Updated: Mon, 01-Sep-2014 6:51pm EDT
Partly cloudy
Partly cloudy
 Wind from S
Wind: S 12 mph , 19 km/h
Temperature: 82°F , 28°C
Heat Index: 87°F , 31°C
Dew Point: 73°F , 23°C
Humidity: 74%
Barometer: 29.95 inHg , 1014.2 hPa
Clouds: Partly cloudy
Visibility: 10 miles , 16 km
Cloud details: Partly cloudy 8500 ft
2014/09/01 22:51 KILG 012251Z 17010KT 10SM SCT085 28/23 A2995 RMK AO2 SLP139 T02830233 $